createdAt,value
2017-11-26T00:01:42.663Z,83.36
2017-11-26T00:04:10.092Z,83.64
2017-11-26T00:06:37.667Z,83.84
2017-11-26T00:09:05.154Z,84.13
2017-11-26T00:11:32.699Z,83.96
2017-11-26T00:14:00.100Z,83.75
2017-11-26T00:16:27.533Z,84.01
2017-11-26T00:18:55.011Z,83.57
2017-11-26T00:21:22.490Z,83.04
2017-11-26T00:23:49.914Z,83.34
2017-11-26T00:26:17.374Z,82.22
2017-11-26T00:28:44.816Z,82.58
2017-11-26T00:31:12.203Z,83.00
2017-11-26T00:33:39.641Z,82.13
2017-11-26T00:36:07.059Z,82.52
2017-11-26T00:38:34.654Z,82.61
2017-11-26T00:41:02.040Z,82.33
2017-11-26T00:43:29.471Z,81.83
2017-11-26T00:45:56.868Z,82.07
2017-11-26T00:48:24.342Z,81.83
2017-11-26T00:50:51.819Z,83.00
2017-11-26T00:53:19.361Z,81.79
2017-11-26T00:55:47.261Z,83.05
2017-11-26T00:58:14.761Z,82.06
2017-11-26T01:00:42.204Z,82.31
2017-11-26T01:03:09.692Z,82.30
2017-11-26T01:05:37.139Z,82.69
2017-11-26T01:08:04.717Z,83.21
2017-11-26T01:10:32.110Z,82.71
2017-11-26T01:12:59.531Z,82.75
2017-11-26T01:15:27.027Z,82.61
2017-11-26T01:17:54.452Z,81.31
2017-11-26T01:20:21.915Z,81.74
2017-11-26T01:22:49.439Z,81.48
2017-11-26T01:25:17.073Z,80.54
2017-11-26T01:27:44.575Z,80.37
2017-11-26T01:30:12.053Z,81.08
2017-11-26T01:32:39.555Z,81.03
2017-11-26T01:35:07.093Z,80.95
2017-11-26T01:37:34.666Z,80.61
2017-11-26T01:40:02.111Z,81.23
2017-11-26T01:42:29.609Z,80.93
2017-11-26T01:44:57.036Z,81.23
2017-11-26T01:47:24.423Z,81.24
2017-11-26T01:49:51.979Z,81.77
2017-11-26T01:52:19.526Z,81.81
2017-11-26T01:54:47.606Z,81.65
2017-11-26T01:57:15.102Z,81.87
2017-11-26T01:59:42.564Z,81.79
2017-11-26T02:02:10.026Z,81.62
2017-11-26T02:04:37.425Z,81.11
2017-11-26T02:07:05.178Z,80.57
2017-11-26T02:09:32.606Z,79.64
2017-11-26T02:12:00.074Z,78.93
2017-11-26T02:14:27.503Z,79.47
2017-11-26T02:16:54.901Z,79.97
2017-11-26T02:19:22.327Z,80.30
2017-11-26T02:21:49.727Z,80.68
2017-11-26T02:24:17.291Z,80.63
2017-11-26T02:26:44.694Z,80.13
2017-11-26T02:29:12.127Z,79.53
2017-11-26T02:31:51.439Z,79.16
2017-11-26T02:34:30.656Z,78.69
2017-11-26T02:36:58.043Z,78.93
2017-11-26T02:39:25.513Z,79.18
2017-11-26T02:41:52.893Z,78.10
2017-11-26T02:44:20.358Z,78.01
2017-11-26T02:46:47.842Z,78.58
2017-11-26T02:49:15.317Z,78.03
2017-11-26T02:51:42.736Z,76.79
2017-11-26T02:54:10.203Z,76.49
2017-11-26T02:56:37.659Z,76.42
2017-11-26T02:59:05.077Z,76.99
2017-11-26T03:01:32.507Z,76.59
2017-11-26T03:03:59.983Z,75.47
2017-11-26T03:06:27.458Z,76.62
2017-11-26T03:08:54.927Z,77.13
2017-11-26T03:11:22.352Z,76.90
2017-11-26T03:13:49.783Z,75.77
2017-11-26T03:16:17.269Z,76.63
2017-11-26T03:18:44.682Z,77.22
2017-11-26T03:21:12.120Z,77.32
2017-11-26T03:23:39.516Z,77.47
2017-11-26T03:26:07.008Z,77.81
2017-11-26T03:28:34.439Z,77.92
2017-11-26T03:31:01.862Z,77.61
2017-11-26T03:33:29.251Z,77.42
2017-11-26T03:35:56.724Z,77.76
2017-11-26T03:38:24.262Z,77.10
2017-11-26T03:40:51.692Z,76.93
2017-11-26T03:43:19.092Z,77.57
2017-11-26T03:45:46.607Z,77.75
2017-11-26T03:48:14.051Z,77.56
2017-11-26T03:50:41.479Z,77.29
2017-11-26T03:53:08.863Z,77.78
2017-11-26T03:55:36.372Z,77.99
2017-11-26T03:58:03.820Z,78.78
2017-11-26T04:00:31.286Z,78.45
2017-11-26T04:02:58.681Z,78.78
2017-11-26T04:05:26.115Z,77.71
2017-11-26T04:07:53.560Z,76.92
2017-11-26T04:10:20.983Z,77.50
2017-11-26T04:12:48.451Z,78.13
2017-11-26T04:15:16.028Z,78.15
2017-11-26T04:17:43.481Z,78.61
2017-11-26T04:20:10.877Z,78.60
2017-11-26T04:22:38.305Z,77.81
2017-11-26T04:25:05.696Z,78.78
2017-11-26T04:27:33.115Z,77.91
2017-11-26T04:30:00.503Z,78.10
2017-11-26T04:32:27.951Z,78.00
2017-11-26T04:34:55.344Z,78.30
2017-11-26T04:37:22.828Z,78.08
2017-11-26T04:39:50.312Z,78.18
2017-11-26T04:42:18.556Z,78.74
2017-11-26T04:44:46.116Z,79.13
2017-11-26T04:47:13.579Z,79.64
2017-11-26T04:49:40.972Z,80.05
2017-11-26T04:52:08.394Z,80.21
2017-11-26T04:54:35.855Z,80.10
2017-11-26T04:57:03.314Z,80.87
2017-11-26T04:59:30.785Z,80.44
2017-11-26T05:01:58.216Z,80.11
2017-11-26T05:04:25.605Z,79.61
2017-11-26T05:06:53.041Z,80.29
2017-11-26T05:09:20.446Z,80.42
2017-11-26T05:11:47.966Z,78.83
2017-11-26T05:14:15.419Z,78.94
2017-11-26T05:16:42.829Z,78.13
2017-11-26T05:19:10.312Z,77.73
2017-11-26T05:21:37.716Z,77.42
2017-11-26T05:24:05.162Z,77.57
2017-11-26T05:26:32.553Z,77.48
2017-11-26T05:28:59.976Z,77.79
2017-11-26T05:31:27.468Z,77.79
2017-11-26T05:33:54.944Z,77.44
2017-11-26T05:36:22.412Z,77.59
2017-11-26T05:38:49.870Z,77.55
2017-11-26T05:41:17.435Z,77.95
2017-11-26T05:43:45.582Z,78.25
2017-11-26T05:46:12.980Z,78.62
2017-11-26T05:48:40.424Z,79.15
2017-11-26T05:51:07.807Z,78.92
2017-11-26T05:53:35.259Z,79.07
2017-11-26T05:56:02.664Z,78.43
2017-11-26T05:58:30.261Z,78.93
2017-11-26T06:00:57.724Z,78.87
2017-11-26T06:03:25.195Z,78.99
2017-11-26T06:05:52.596Z,79.09
2017-11-26T06:08:20.072Z,78.98
2017-11-26T06:10:47.561Z,79.28
2017-11-26T06:13:15.067Z,79.31
2017-11-26T06:15:42.477Z,79.16
2017-11-26T06:18:09.902Z,79.28
2017-11-26T06:20:37.343Z,79.34
2017-11-26T06:23:04.880Z,79.86
2017-11-26T06:25:32.321Z,80.14
2017-11-26T06:27:59.766Z,79.82
2017-11-26T06:30:27.196Z,80.13
2017-11-26T06:32:54.588Z,79.60
2017-11-26T06:35:22.097Z,79.88
2017-11-26T06:37:49.584Z,80.15
2017-11-26T06:40:17.155Z,80.23
2017-11-26T06:42:44.584Z,80.36
2017-11-26T06:45:12.012Z,80.42
2017-11-26T06:47:39.451Z,80.12
2017-11-26T06:50:06.971Z,79.55
2017-11-26T06:52:34.399Z,79.94
2017-11-26T06:55:01.848Z,80.02
2017-11-26T06:57:29.305Z,80.12
2017-11-26T06:59:56.740Z,80.15
2017-11-26T07:02:24.172Z,79.80
2017-11-26T07:04:51.624Z,80.28
2017-11-26T07:07:19.069Z,80.62
2017-11-26T07:09:46.583Z,80.69
2017-11-26T07:12:14.049Z,80.07
2017-11-26T07:14:41.565Z,79.99
2017-11-26T07:17:08.955Z,78.68
2017-11-26T07:19:36.391Z,78.85
2017-11-26T07:22:03.836Z,78.30
2017-11-26T07:24:31.269Z,78.45
2017-11-26T07:26:58.672Z,78.90
2017-11-26T07:29:26.137Z,78.60
2017-11-26T07:31:53.542Z,78.44
2017-11-26T07:34:20.979Z,77.32
2017-11-26T07:36:48.464Z,77.18
2017-11-26T07:39:16.030Z,76.60
2017-11-26T07:41:43.496Z,77.48
2017-11-26T07:44:10.931Z,76.63
2017-11-26T07:46:38.375Z,77.28
2017-11-26T07:49:06.086Z,78.71
2017-11-26T07:51:33.566Z,79.12
2017-11-26T07:54:01.040Z,80.25
2017-11-26T07:56:28.474Z,80.91
2017-11-26T07:58:55.883Z,81.91
2017-11-26T08:01:23.367Z,82.30
2017-11-26T08:03:50.852Z,81.97
2017-11-26T08:06:18.349Z,82.16
2017-11-26T08:08:45.762Z,82.19
2017-11-26T08:11:13.199Z,82.87
2017-11-26T08:13:40.702Z,83.01
2017-11-26T08:16:08.176Z,82.40
2017-11-26T08:18:35.671Z,81.94
2017-11-26T08:21:03.184Z,81.29
2017-11-26T08:23:30.587Z,81.53
2017-11-26T08:25:58.028Z,80.64
2017-11-26T08:28:25.431Z,79.83
2017-11-26T08:30:52.995Z,78.25
2017-11-26T08:33:20.480Z,77.43
2017-11-26T08:35:47.934Z,76.83
2017-11-26T08:38:15.348Z,77.01
2017-11-26T08:40:42.781Z,76.93
2017-11-26T08:43:10.180Z,76.62
2017-11-26T08:45:37.619Z,72.78
2017-11-26T08:48:05.061Z,73.84
2017-11-26T08:50:32.443Z,74.62
2017-11-26T08:52:59.916Z,74.83
2017-11-26T08:55:27.311Z,73.36
2017-11-26T08:57:54.749Z,74.16
2017-11-26T09:00:22.140Z,74.92
2017-11-26T09:02:49.628Z,75.25
2017-11-26T09:05:17.051Z,74.08
2017-11-26T09:07:47.529Z,74.30
2017-11-26T09:10:15.002Z,74.81
2017-11-26T09:12:42.471Z,74.64
2017-11-26T09:15:09.897Z,73.36
2017-11-26T09:17:38.225Z,72.27
2017-11-26T09:20:05.637Z,72.95
2017-11-26T09:22:33.075Z,72.79
2017-11-26T09:25:00.485Z,72.94
2017-11-26T09:27:28.362Z,72.60
2017-11-26T09:29:55.755Z,72.52
2017-11-26T09:32:23.191Z,71.49
2017-11-26T09:34:50.604Z,71.12
2017-11-26T09:37:18.069Z,69.81
2017-11-26T09:39:45.525Z,71.10
2017-11-26T09:42:13.000Z,70.52
2017-11-26T09:44:40.575Z,70.52
2017-11-26T09:47:08.051Z,71.33
2017-11-26T09:49:35.556Z,71.66
2017-11-26T09:52:03.012Z,72.01
2017-11-26T09:54:30.400Z,71.75
2017-11-26T09:56:57.835Z,72.70
2017-11-26T09:59:25.238Z,72.52
2017-11-26T10:01:52.766Z,72.83
2017-11-26T10:04:20.255Z,73.12
2017-11-26T10:06:47.755Z,71.11
2017-11-26T10:09:16.231Z,70.79
2017-11-26T10:11:43.615Z,71.22
2017-11-26T10:14:11.044Z,71.34
2017-11-26T10:16:38.439Z,71.12
2017-11-26T10:19:06.029Z,71.02
2017-11-26T10:21:33.436Z,70.75
2017-11-26T10:24:00.885Z,71.00
2017-11-26T10:26:28.289Z,71.29
2017-11-26T10:28:55.770Z,71.37
2017-11-26T10:31:23.204Z,72.63
2017-11-26T10:33:50.726Z,72.38
2017-11-26T10:36:18.187Z,72.61
2017-11-26T10:38:45.638Z,73.17
2017-11-26T10:41:13.118Z,73.38
2017-11-26T10:43:40.552Z,72.42
2017-11-26T10:46:07.944Z,73.42
2017-11-26T10:48:35.399Z,73.51
2017-11-26T10:51:02.812Z,73.40
2017-11-26T10:53:30.373Z,73.73
2017-11-26T10:55:57.778Z,74.23
2017-11-26T10:58:25.227Z,74.71
2017-11-26T11:00:52.684Z,74.17
2017-11-26T11:03:20.141Z,72.86
2017-11-26T11:05:47.559Z,73.29
2017-11-26T11:08:15.074Z,74.03
2017-11-26T11:10:42.476Z,73.55
2017-11-26T11:13:09.944Z,73.11
2017-11-26T11:15:37.336Z,75.21
2017-11-26T11:18:04.741Z,74.43
2017-11-26T11:20:32.197Z,75.50
2017-11-26T11:22:59.597Z,74.59
2017-11-26T11:25:27.059Z,75.08
2017-11-26T11:27:54.466Z,75.22
2017-11-26T11:30:21.912Z,75.52
2017-11-26T11:32:49.336Z,75.80
2017-11-26T11:35:16.801Z,75.10
2017-11-26T11:37:44.314Z,74.89
2017-11-26T11:40:11.761Z,73.96
2017-11-26T11:42:39.152Z,72.74
2017-11-26T11:45:06.617Z,70.37
2017-11-26T11:47:34.109Z,70.88
2017-11-26T11:50:01.573Z,69.84
2017-11-26T11:52:28.977Z,70.18
2017-11-26T11:54:56.441Z,69.83
2017-11-26T11:57:23.839Z,67.95
2017-11-26T11:59:51.325Z,67.86
2017-11-26T12:02:18.778Z,65.70
2017-11-26T12:04:46.229Z,66.23
2017-11-26T12:07:13.646Z,63.92
2017-11-26T12:09:41.109Z,63.25
2017-11-26T12:12:08.508Z,63.48
2017-11-26T12:14:35.963Z,64.13
2017-11-26T12:17:03.418Z,64.28
2017-11-26T12:19:30.896Z,63.17
2017-11-26T12:21:58.367Z,64.44
2017-11-26T12:24:25.810Z,64.74
2017-11-26T12:26:53.230Z,65.24
2017-11-26T12:29:20.684Z,63.51
2017-11-26T12:31:48.121Z,62.75
2017-11-26T12:34:15.734Z,64.62
2017-11-26T12:36:43.156Z,65.05
2017-11-26T12:39:10.548Z,63.05
2017-11-26T12:41:38.017Z,62.85
2017-11-26T12:44:05.508Z,62.87
2017-11-26T12:46:33.040Z,63.65
2017-11-26T12:49:00.431Z,63.30
2017-11-26T12:51:27.870Z,62.71
2017-11-26T12:53:55.273Z,61.32
2017-11-26T12:56:22.725Z,60.58
2017-11-26T12:58:50.149Z,61.12
2017-11-26T13:01:17.699Z,61.62
2017-11-26T13:03:45.144Z,62.02
2017-11-26T13:06:12.733Z,61.63
2017-11-26T13:08:41.432Z,62.20
2017-11-26T13:11:08.910Z,61.22
2017-11-26T13:13:38.011Z,61.91
2017-11-26T13:16:06.854Z,62.37
2017-11-26T13:18:36.151Z,61.27
2017-11-26T13:21:04.903Z,62.55
2017-11-26T13:23:33.643Z,61.81
2017-11-26T13:26:02.551Z,61.16
2017-11-26T13:28:31.403Z,60.44
2017-11-26T13:31:00.116Z,61.29
2017-11-26T13:33:28.787Z,61.54
2017-11-26T13:35:57.502Z,62.37
2017-11-26T13:38:26.316Z,61.63
2017-11-26T13:40:54.711Z,61.90
2017-11-26T13:43:23.452Z,62.81
2017-11-26T13:45:52.285Z,63.25
2017-11-26T13:48:21.080Z,62.39
2017-11-26T13:50:49.499Z,63.74
2017-11-26T13:53:18.300Z,63.35
2017-11-26T13:55:47.020Z,63.13
2017-11-26T13:58:15.756Z,64.16
2017-11-26T14:00:44.622Z,62.74
2017-11-26T14:03:13.379Z,63.12
2017-11-26T14:05:42.163Z,63.69
2017-11-26T14:08:10.801Z,63.14
2017-11-26T14:10:39.529Z,63.86
2017-11-26T14:13:08.133Z,63.57
2017-11-26T14:15:37.114Z,63.67
2017-11-26T14:18:05.568Z,62.57
2017-11-26T14:20:33.746Z,61.77
2017-11-26T14:23:01.983Z,62.79
2017-11-26T14:25:30.103Z,63.24
2017-11-26T14:27:58.172Z,62.73
2017-11-26T14:30:26.496Z,63.78
2017-11-26T14:32:54.791Z,64.82
2017-11-26T14:35:23.135Z,63.88
2017-11-26T14:37:51.380Z,64.37
2017-11-26T14:40:20.053Z,64.16
2017-11-26T14:42:48.553Z,64.69
2017-11-26T14:45:16.925Z,64.10
2017-11-26T14:47:46.887Z,64.40
2017-11-26T14:50:15.199Z,63.58
2017-11-26T14:52:43.443Z,63.68
2017-11-26T14:55:11.760Z,62.59
2017-11-26T14:57:40.386Z,62.99
2017-11-26T15:00:08.485Z,64.16
2017-11-26T15:02:36.836Z,65.15
2017-11-26T15:05:04.992Z,64.88
2017-11-26T15:07:33.320Z,65.33
2017-11-26T15:10:01.590Z,64.65
2017-11-26T15:12:30.023Z,64.70
2017-11-26T15:14:58.029Z,65.85
2017-11-26T15:17:26.247Z,66.53
2017-11-26T15:19:54.282Z,67.15
2017-11-26T15:22:22.501Z,67.71
2017-11-26T15:24:50.860Z,67.18
2017-11-26T15:27:19.435Z,67.24
2017-11-26T15:29:47.846Z,66.84
2017-11-26T15:32:16.364Z,67.63
2017-11-26T15:34:44.810Z,67.35
2017-11-26T15:37:13.475Z,67.95
2017-11-26T15:39:41.860Z,67.04
2017-11-26T15:42:09.910Z,67.64
2017-11-26T15:44:38.580Z,68.55
2017-11-26T15:47:06.970Z,67.50
2017-11-26T15:49:35.352Z,67.33
2017-11-26T15:52:03.785Z,67.92
2017-11-26T15:54:32.234Z,67.88
2017-11-26T15:57:00.617Z,68.64
2017-11-26T15:59:28.960Z,68.55
2017-11-26T16:01:57.405Z,67.90
2017-11-26T16:04:25.689Z,68.57
2017-11-26T16:06:54.143Z,68.53
2017-11-26T16:09:22.514Z,68.87
2017-11-26T16:11:51.213Z,68.86
2017-11-26T16:14:19.152Z,68.82
2017-11-26T16:16:46.598Z,69.44
2017-11-26T16:19:14.131Z,68.01
2017-11-26T16:21:41.519Z,67.55
2017-11-26T16:24:09.076Z,68.78
2017-11-26T16:26:36.475Z,68.34
2017-11-26T16:29:03.919Z,68.89
2017-11-26T16:31:31.331Z,68.96
2017-11-26T16:33:59.675Z,69.68
2017-11-26T16:36:27.149Z,69.76
2017-11-26T16:38:54.602Z,69.51
2017-11-26T16:41:22.008Z,70.40
2017-11-26T16:43:49.447Z,72.94
2017-11-26T16:46:16.960Z,74.45
2017-11-26T16:48:44.365Z,76.06
2017-11-26T16:51:11.810Z,77.63
2017-11-26T16:53:39.845Z,78.93
2017-11-26T16:56:07.283Z,80.39
2017-11-26T16:58:34.696Z,81.38
2017-11-26T17:01:02.254Z,82.49
2017-11-26T17:03:29.644Z,83.27
2017-11-26T17:05:57.093Z,83.91
2017-11-26T17:08:24.498Z,84.18
2017-11-26T17:10:51.939Z,84.80
2017-11-26T17:13:19.384Z,84.91
2017-11-26T17:15:46.969Z,84.90
2017-11-26T17:18:14.376Z,85.08
2017-11-26T17:20:41.809Z,84.58
2017-11-26T17:23:09.204Z,84.85
2017-11-26T17:25:36.741Z,84.78
2017-11-26T17:28:04.225Z,84.17
2017-11-26T17:30:31.676Z,84.23
2017-11-26T17:32:59.157Z,83.85
2017-11-26T17:35:26.589Z,83.10
2017-11-26T17:37:54.005Z,82.80
2017-11-26T17:40:21.590Z,82.73
2017-11-26T17:42:49.143Z,83.46
2017-11-26T17:45:16.720Z,83.13
2017-11-26T17:47:44.274Z,80.09
2017-11-26T17:50:11.751Z,80.33
2017-11-26T17:52:39.153Z,80.41
2017-11-26T17:55:06.585Z,82.00
2017-11-26T17:57:34.065Z,82.02
2017-11-26T18:00:01.464Z,81.47
2017-11-26T18:02:28.937Z,81.45
2017-11-26T18:04:56.346Z,80.82
2017-11-26T18:07:23.778Z,81.33
2017-11-26T18:09:51.301Z,81.07
2017-11-26T18:12:18.859Z,81.78
2017-11-26T18:14:46.841Z,82.48
2017-11-26T18:17:14.372Z,82.49
2017-11-26T18:19:41.800Z,82.45
2017-11-26T18:22:09.239Z,82.03
2017-11-26T18:24:36.642Z,82.72
2017-11-26T18:27:04.093Z,82.25
2017-11-26T18:29:31.577Z,82.00
2017-11-26T18:31:59.044Z,82.17
2017-11-26T18:34:26.487Z,81.79
2017-11-26T18:36:53.931Z,81.45
2017-11-26T18:39:21.450Z,81.11
2017-11-26T18:41:49.172Z,80.84
2017-11-26T18:44:16.665Z,80.86
2017-11-26T18:46:44.149Z,80.67
2017-11-26T18:49:11.538Z,80.07
2017-11-26T18:51:39.117Z,79.41
2017-11-26T18:54:06.546Z,78.95
2017-11-26T18:56:34.060Z,79.14
2017-11-26T18:59:01.530Z,78.63
2017-11-26T19:01:28.976Z,78.45
2017-11-26T19:03:56.416Z,78.11
2017-11-26T19:06:23.810Z,78.37
2017-11-26T19:08:51.332Z,77.75
2017-11-26T19:11:18.766Z,76.96
2017-11-26T19:13:46.216Z,77.50
2017-11-26T19:16:13.633Z,77.11
2017-11-26T19:18:41.090Z,77.28
2017-11-26T19:21:08.496Z,77.09
2017-11-26T19:23:35.953Z,76.79
2017-11-26T19:26:03.356Z,76.84
2017-11-26T19:28:30.852Z,76.04
2017-11-26T19:30:58.343Z,76.16
2017-11-26T19:33:25.818Z,75.95
2017-11-26T19:35:53.278Z,76.43
2017-11-26T19:38:20.739Z,75.96
2017-11-26T19:40:48.203Z,76.72
2017-11-26T19:43:15.680Z,76.15
2017-11-26T19:45:43.069Z,76.29
2017-11-26T19:48:10.524Z,76.18
2017-11-26T19:50:37.945Z,76.92
2017-11-26T19:53:05.408Z,76.63
2017-11-26T19:55:32.800Z,76.40
2017-11-26T19:58:00.235Z,76.11
2017-11-26T20:00:27.712Z,76.16
2017-11-26T20:02:55.245Z,76.60
2017-11-26T20:05:22.853Z,77.00
2017-11-26T20:07:50.645Z,77.35
2017-11-26T20:10:18.252Z,77.22
2017-11-26T20:12:45.917Z,78.08
2017-11-26T20:15:13.387Z,78.04
2017-11-26T20:17:42.623Z,78.99
2017-11-26T20:20:11.948Z,79.65
2017-11-26T20:22:41.076Z,80.26
2017-11-26T20:25:10.213Z,80.73
2017-11-26T20:27:39.521Z,81.17
2017-11-26T20:30:09.075Z,80.99
2017-11-26T20:32:38.582Z,81.08
2017-11-26T20:35:06.156Z,80.47
2017-11-26T20:37:33.665Z,80.71
2017-11-26T20:40:01.181Z,80.16
2017-11-26T20:42:28.739Z,80.19
2017-11-26T20:44:56.324Z,79.73
2017-11-26T20:47:23.891Z,79.78
2017-11-26T20:49:51.549Z,80.46
2017-11-26T20:52:19.116Z,80.92
2017-11-26T20:54:46.843Z,80.49
2017-11-26T20:57:14.450Z,79.61
2017-11-26T20:59:41.988Z,79.48
2017-11-26T21:02:09.566Z,79.24
2017-11-26T21:04:37.157Z,78.98
2017-11-26T21:07:04.716Z,79.40
2017-11-26T21:09:32.359Z,79.71
2017-11-26T21:11:59.971Z,79.49
2017-11-26T21:14:27.553Z,79.99
2017-11-26T21:16:55.052Z,79.84
2017-11-26T21:19:22.849Z,80.27
2017-11-26T21:21:50.414Z,80.10
2017-11-26T21:24:18.144Z,80.45
2017-11-26T21:26:45.678Z,80.62
2017-11-26T21:29:13.243Z,80.87
2017-11-26T21:31:40.691Z,80.60
2017-11-26T21:34:08.216Z,80.53
2017-11-26T21:36:35.691Z,80.86
2017-11-26T21:39:03.157Z,80.54
2017-11-26T21:41:30.841Z,80.68
2017-11-26T21:43:58.300Z,80.72
2017-11-26T21:46:25.745Z,80.71
2017-11-26T21:48:53.258Z,80.30
2017-11-26T21:51:20.744Z,80.09
2017-11-26T21:53:48.192Z,80.67
2017-11-26T21:56:15.656Z,81.01
2017-11-26T21:58:43.047Z,81.23
2017-11-26T22:01:10.497Z,80.50
2017-11-26T22:03:37.964Z,80.77
2017-11-26T22:06:05.409Z,80.25
2017-11-26T22:08:32.803Z,80.12
2017-11-26T22:11:00.239Z,79.66
2017-11-26T22:13:27.845Z,79.58
2017-11-26T22:15:55.278Z,79.18
2017-11-26T22:18:22.729Z,79.29
2017-11-26T22:20:50.288Z,79.71
2017-11-26T22:23:17.744Z,79.72
2017-11-26T22:25:46.410Z,79.66
2017-11-26T22:28:13.847Z,79.43
2017-11-26T22:30:41.285Z,79.33
2017-11-26T22:33:08.713Z,79.54
2017-11-26T22:35:36.254Z,79.90
2017-11-26T22:38:03.663Z,80.14
2017-11-26T22:40:31.145Z,80.07
2017-11-26T22:42:58.535Z,80.44
2017-11-26T22:45:25.973Z,80.07
2017-11-26T22:47:53.380Z,79.78
2017-11-26T22:50:20.784Z,80.14
2017-11-26T22:52:48.265Z,80.43
2017-11-26T22:55:15.655Z,80.46
2017-11-26T22:57:43.128Z,80.12
2017-11-26T23:00:10.540Z,78.99
2017-11-26T23:02:37.977Z,78.38
2017-11-26T23:05:05.376Z,78.70
2017-11-26T23:07:32.907Z,79.07
2017-11-26T23:10:00.299Z,79.51
2017-11-26T23:12:27.752Z,78.99
2017-11-26T23:14:55.150Z,78.95
2017-11-26T23:17:22.609Z,78.80
2017-11-26T23:19:50.055Z,78.63
2017-11-26T23:22:17.550Z,78.51
2017-11-26T23:24:45.007Z,78.59
2017-11-26T23:27:12.429Z,78.09
2017-11-26T23:29:39.833Z,77.70
2017-11-26T23:32:07.305Z,77.65
2017-11-26T23:34:34.691Z,78.08
2017-11-26T23:37:02.111Z,78.76
2017-11-26T23:39:29.504Z,78.69
2017-11-26T23:41:56.983Z,78.59
2017-11-26T23:44:24.379Z,78.78
2017-11-26T23:46:52.056Z,78.46
2017-11-26T23:49:20.167Z,78.80
2017-11-26T23:51:47.792Z,78.49
2017-11-26T23:54:15.235Z,78.45
2017-11-26T23:56:42.667Z,78.27
2017-11-26T23:59:10.084Z,78.53
